createdAt,value
2023-04-10T00:01:40.351Z,22.63
2023-04-10T00:04:09.062Z,23.87
2023-04-10T00:06:37.513Z,22.70
2023-04-10T00:09:06.189Z,24.03
2023-04-10T00:11:34.812Z,23.50
2023-04-10T00:14:03.264Z,26.80
2023-04-10T00:16:33.036Z,23.97
2023-04-10T00:19:01.382Z,26.70
2023-04-10T00:21:29.750Z,27.57
2023-04-10T00:23:58.100Z,22.20
2023-04-10T00:26:26.842Z,25.23
2023-04-10T00:28:55.271Z,24.30
2023-04-10T00:31:23.624Z,24.30
2023-04-10T00:33:53.723Z,23.97
2023-04-10T00:36:22.320Z,26.47
2023-04-10T00:38:50.904Z,23.40
2023-04-10T00:41:19.324Z,25.73
2023-04-10T00:43:47.780Z,24.30
2023-04-10T00:46:16.471Z,23.57
2023-04-10T00:48:44.930Z,26.83
2023-04-10T00:51:14.678Z,24.83
2023-04-10T00:53:43.051Z,27.27
2023-04-10T00:56:12.211Z,28.77
2023-04-10T00:58:40.858Z,24.73
2023-04-10T01:01:09.596Z,24.23
2023-04-10T01:03:38.762Z,25.03
2023-04-10T01:06:10.814Z,25.23
2023-04-10T01:08:47.632Z,23.13
2023-04-10T01:11:21.169Z,26.63
2023-04-10T01:13:52.334Z,25.83
2023-04-10T01:16:26.692Z,30.67
2023-04-10T01:18:59.150Z,27.63
2023-04-10T01:21:28.007Z,27.23
2023-04-10T01:24:07.330Z,26.47
2023-04-10T01:26:44.188Z,27.70
2023-04-10T01:29:19.671Z,26.03
2023-04-10T01:31:53.321Z,23.13
2023-04-10T01:34:23.401Z,28.27
2023-04-10T01:36:53.820Z,27.57
2023-04-10T01:39:22.979Z,25.53
2023-04-10T01:41:52.858Z,26.87
2023-04-10T01:44:27.659Z,26.70
2023-04-10T01:46:57.658Z,26.13
2023-04-10T01:49:27.228Z,26.20
2023-04-10T01:52:03.070Z,27.57
2023-04-10T01:54:33.407Z,28.50
2023-04-10T01:57:06.432Z,29.07
2023-04-10T01:59:46.774Z,26.47
2023-04-10T02:02:15.633Z,26.40
2023-04-10T02:04:46.619Z,25.63
2023-04-10T02:07:18.588Z,26.60
2023-04-10T02:09:49.677Z,26.50
2023-04-10T02:12:20.507Z,24.67
2023-04-10T02:14:52.183Z,23.43
2023-04-10T02:17:23.484Z,26.10
2023-04-10T02:19:55.125Z,24.87
2023-04-10T02:22:25.621Z,24.60
2023-04-10T02:24:54.172Z,27.00
2023-04-10T02:27:29.848Z,22.83
2023-04-10T02:30:01.062Z,26.17
2023-04-10T02:32:30.060Z,25.77
2023-04-10T02:34:58.696Z,23.73
2023-04-10T02:37:27.202Z,24.23
2023-04-10T02:39:56.185Z,24.87
2023-04-10T02:42:27.195Z,24.67
2023-04-10T02:44:59.030Z,25.70
2023-04-10T02:47:29.231Z,25.53
2023-04-10T02:49:57.704Z,25.93
2023-04-10T02:52:30.093Z,27.43
2023-04-10T02:54:58.588Z,22.87
2023-04-10T02:57:30.232Z,23.77
2023-04-10T02:59:59.040Z,25.03
2023-04-10T03:02:31.122Z,27.07
2023-04-10T03:05:03.493Z,24.63
2023-04-10T03:07:33.992Z,28.27
2023-04-10T03:10:02.439Z,25.20
2023-04-10T03:12:31.926Z,23.00
2023-04-10T03:15:00.566Z,25.80
2023-04-10T03:17:29.051Z,25.53
2023-04-10T03:19:58.969Z,24.03
2023-04-10T03:22:27.672Z,23.60
2023-04-10T03:24:56.974Z,25.10
2023-04-10T03:27:25.486Z,28.10
2023-04-10T03:29:53.868Z,26.07
2023-04-10T03:32:22.288Z,25.13
2023-04-10T03:34:50.760Z,24.23
2023-04-10T03:37:20.618Z,24.43
2023-04-10T03:39:49.038Z,22.30
2023-04-10T03:42:17.441Z,26.70
2023-04-10T03:44:46.359Z,23.73
2023-04-10T03:47:14.801Z,24.57
2023-04-10T03:49:49.102Z,23.53
2023-04-10T03:52:17.580Z,26.30
2023-04-10T03:54:48.658Z,21.93
2023-04-10T03:57:26.251Z,22.13
2023-04-10T04:00:00.465Z,27.67
2023-04-10T04:02:37.315Z,25.50
2023-04-10T04:05:06.595Z,23.63
2023-04-10T04:07:47.075Z,27.80
2023-04-10T04:10:25.201Z,30.37
2023-04-10T04:13:13.564Z,26.43
2023-04-10T04:15:53.795Z,30.03
2023-04-10T04:18:42.462Z,30.83
2023-04-10T04:21:28.518Z,27.67
2023-04-10T04:24:19.827Z,30.00
2023-04-10T04:26:57.884Z,24.67
2023-04-10T04:30:02.584Z,31.70
2023-04-10T04:32:46.901Z,30.90
2023-04-10T04:35:33.839Z,32.07
2023-04-10T04:38:31.305Z,27.97
2023-04-10T04:41:30.780Z,34.47
2023-04-10T04:44:13.182Z,29.43
2023-04-10T04:47:10.950Z,31.87
2023-04-10T04:49:47.350Z,31.53
2023-04-10T04:52:50.916Z,31.90
2023-04-10T04:55:28.650Z,28.17
2023-04-10T04:58:18.680Z,29.70
2023-04-10T05:01:07.385Z,24.73
2023-04-10T05:04:14.097Z,28.17
2023-04-10T05:06:59.451Z,25.83
2023-04-10T05:10:00.712Z,29.73
2023-04-10T05:12:38.182Z,28.53
2023-04-10T05:15:24.017Z,30.03
2023-04-10T05:18:05.768Z,27.07
2023-04-10T05:20:42.121Z,32.20
2023-04-10T05:23:22.219Z,27.33
2023-04-10T05:26:19.539Z,26.23
2023-04-10T05:28:55.656Z,29.43
2023-04-10T05:31:44.686Z,30.67
2023-04-10T05:34:23.505Z,28.07
2023-04-10T05:37:12.904Z,31.27
2023-04-10T05:40:08.065Z,31.97
2023-04-10T05:43:11.781Z,31.77
2023-04-10T05:46:02.761Z,29.07
2023-04-10T05:48:49.754Z,22.80
2023-04-10T05:51:26.271Z,22.80
2023-04-10T05:54:07.970Z,24.37
2023-04-10T05:57:08.851Z,22.10
2023-04-10T05:59:49.113Z,19.60
2023-04-10T06:02:42.132Z,18.20
2023-04-10T06:05:18.329Z,18.80
2023-04-10T06:07:48.766Z,21.20
2023-04-10T06:10:17.383Z,18.87
2023-04-10T06:12:46.976Z,18.67
2023-04-10T06:15:15.896Z,18.80
2023-04-10T06:17:44.758Z,17.03
2023-04-10T06:20:13.640Z,18.00
2023-04-10T06:22:42.079Z,14.07
2023-04-10T06:25:12.081Z,16.13
2023-04-10T06:27:40.474Z,15.10
2023-04-10T06:30:12.538Z,14.80
2023-04-10T06:32:40.977Z,13.77
2023-04-10T06:35:09.780Z,14.33
2023-04-10T06:37:38.175Z,15.93
2023-04-10T06:40:07.808Z,14.53
2023-04-10T06:42:37.924Z,14.83
2023-04-10T06:45:28.837Z,16.07
2023-04-10T06:47:57.309Z,15.07
2023-04-10T06:50:25.725Z,14.17
2023-04-10T06:52:55.992Z,14.33
2023-04-10T06:55:24.403Z,12.80
2023-04-10T06:57:55.009Z,14.17
2023-04-10T07:00:23.717Z,14.77
2023-04-10T07:02:52.254Z,14.13
2023-04-10T07:05:21.025Z,14.50
2023-04-10T07:07:50.707Z,13.30
2023-04-10T07:10:19.255Z,16.00
2023-04-10T07:12:47.642Z,15.30
2023-04-10T07:15:17.574Z,15.47
2023-04-10T07:17:46.095Z,14.73
2023-04-10T07:20:14.702Z,15.47
2023-04-10T07:22:43.053Z,16.17
2023-04-10T07:25:12.042Z,17.20
2023-04-10T07:27:40.429Z,16.53
2023-04-10T07:30:10.504Z,15.47
2023-04-10T07:32:42.307Z,13.70
2023-04-10T07:35:12.444Z,15.07
2023-04-10T07:37:41.227Z,14.07
2023-04-10T07:40:10.058Z,15.43
2023-04-10T07:42:39.267Z,16.10
2023-04-10T07:45:08.173Z,13.10
2023-04-10T07:47:36.572Z,15.30
2023-04-10T07:50:07.004Z,14.37
2023-04-10T07:52:35.422Z,14.23
2023-04-10T07:55:05.162Z,13.17
2023-04-10T07:57:33.554Z,13.73
2023-04-10T08:00:01.959Z,14.07
2023-04-10T08:02:41.582Z,15.07
2023-04-10T08:05:12.360Z,14.93
2023-04-10T08:07:41.144Z,13.60
2023-04-10T08:10:10.000Z,13.13
2023-04-10T08:12:38.403Z,12.50
2023-04-10T08:15:07.915Z,10.37
2023-04-10T08:17:36.543Z,10.53
2023-04-10T08:20:05.369Z,14.73
2023-04-10T08:22:35.168Z,11.17
2023-04-10T08:25:05.016Z,10.43
2023-04-10T08:27:33.530Z,10.90
2023-04-10T08:30:02.440Z,12.10
2023-04-10T08:32:30.966Z,10.10
2023-04-10T08:34:59.702Z,11.73
2023-04-10T08:37:28.225Z,11.67
2023-04-10T08:39:58.742Z,10.90
2023-04-10T08:42:27.458Z,11.03
2023-04-10T08:44:55.932Z,9.60
2023-04-10T08:47:27.271Z,12.53
2023-04-10T08:49:56.133Z,11.70
2023-04-10T08:52:24.994Z,10.30
2023-04-10T08:54:55.807Z,10.97
2023-04-10T08:57:26.909Z,12.47
2023-04-10T08:59:55.608Z,11.50
2023-04-10T09:02:24.418Z,11.43
2023-04-10T09:04:55.267Z,11.70
2023-04-10T09:07:25.006Z,10.47
2023-04-10T09:09:53.474Z,11.13
2023-04-10T09:12:21.820Z,11.57
2023-04-10T09:14:53.475Z,11.87
2023-04-10T09:17:22.639Z,11.50
2023-04-10T09:19:52.472Z,10.17
2023-04-10T09:22:30.572Z,10.27
2023-04-10T09:24:59.475Z,11.50
2023-04-10T09:27:32.525Z,10.17
2023-04-10T09:30:02.629Z,11.03
2023-04-10T09:32:41.741Z,10.83
2023-04-10T09:35:10.924Z,10.10
2023-04-10T09:37:40.766Z,11.17
2023-04-10T09:40:21.157Z,9.53
2023-04-10T09:42:49.648Z,9.50
2023-04-10T09:45:20.597Z,9.55
2023-04-10T09:48:03.270Z,8.30
2023-04-10T09:50:39.308Z,7.90
2023-04-10T09:53:08.168Z,6.63
2023-04-10T09:55:37.200Z,8.30
2023-04-10T09:58:06.105Z,6.47
2023-04-10T10:00:40.426Z,6.53
2023-04-10T10:03:09.813Z,9.75
2023-04-10T10:05:39.306Z,9.27
2023-04-10T10:08:08.152Z,9.13
2023-04-10T10:10:38.303Z,8.55
2023-04-10T10:13:07.295Z,8.67
2023-04-10T10:15:40.701Z,8.50
2023-04-10T10:18:12.818Z,7.83
2023-04-10T10:20:44.096Z,6.83
2023-04-10T10:23:13.098Z,6.00
2023-04-10T10:25:41.564Z,6.13
2023-04-10T10:28:14.226Z,7.30
2023-04-10T10:30:44.793Z,5.93
2023-04-10T10:33:14.763Z,6.37
2023-04-10T10:35:43.527Z,6.93
2023-04-10T10:38:12.224Z,7.80
2023-04-10T10:40:43.076Z,6.50
2023-04-10T10:43:15.125Z,7.10
2023-04-10T10:45:51.125Z,7.80
2023-04-10T10:48:19.577Z,6.90
2023-04-10T10:50:56.277Z,6.30
2023-04-10T10:53:40.831Z,5.97
2023-04-10T10:56:27.028Z,5.40
2023-04-10T10:58:57.622Z,6.83
2023-04-10T11:01:27.545Z,5.50
2023-04-10T11:03:57.288Z,5.60
2023-04-10T11:06:41.219Z,6.00
2023-04-10T11:09:30.848Z,5.63
2023-04-10T11:12:00.183Z,6.03
2023-04-10T11:14:29.219Z,6.33
2023-04-10T11:16:59.093Z,7.17
2023-04-10T11:19:27.974Z,5.17
2023-04-10T11:22:03.634Z,6.50
2023-04-10T11:24:32.354Z,7.53
2023-04-10T11:27:01.683Z,5.03
2023-04-10T11:29:36.050Z,5.50
2023-04-10T11:32:06.088Z,5.47
2023-04-10T11:34:35.428Z,5.00
2023-04-10T11:37:04.018Z,5.70
2023-04-10T11:39:32.959Z,6.05
2023-04-10T11:42:01.673Z,5.68
2023-04-10T11:44:31.622Z,7.78
2023-04-10T11:47:00.012Z,10.80
2023-04-10T11:49:31.792Z,5.90
2023-04-10T11:52:00.629Z,5.72
2023-04-10T11:54:29.752Z,5.97
2023-04-10T11:56:59.748Z,5.60
2023-04-10T11:59:28.377Z,5.45
2023-04-10T12:02:05.004Z,4.95
2023-04-10T12:04:35.594Z,6.38
2023-04-10T12:07:04.287Z,6.25
2023-04-10T12:09:32.799Z,5.32
2023-04-10T12:12:02.159Z,6.00
2023-04-10T12:14:32.364Z,7.32
2023-04-10T12:17:01.006Z,5.28
2023-04-10T12:19:29.702Z,6.43
2023-04-10T12:22:00.300Z,5.68
2023-04-10T12:24:44.611Z,6.05
2023-04-10T12:27:18.891Z,5.18
2023-04-10T12:29:47.677Z,5.25
2023-04-10T12:32:16.356Z,5.25
2023-04-10T12:34:51.354Z,7.15
2023-04-10T12:37:21.317Z,5.05
2023-04-10T12:39:49.950Z,5.40
2023-04-10T12:42:19.598Z,4.87
2023-04-10T12:44:54.970Z,5.93
2023-04-10T12:47:23.516Z,5.33
2023-04-10T12:50:06.274Z,6.50
2023-04-10T12:52:36.111Z,5.77
2023-04-10T12:55:15.525Z,5.60
2023-04-10T12:57:44.487Z,6.30
2023-04-10T13:00:27.819Z,6.27
2023-04-10T13:02:56.471Z,6.57
2023-04-10T13:05:25.249Z,5.70
2023-04-10T13:07:55.006Z,5.07
2023-04-10T13:10:24.630Z,5.07
2023-04-10T13:12:52.984Z,4.43
2023-04-10T13:15:21.363Z,5.70
2023-04-10T13:17:49.761Z,5.57
2023-04-10T13:20:18.366Z,4.87
2023-04-10T13:22:46.775Z,5.07
2023-04-10T13:25:16.535Z,5.07
2023-04-10T13:27:44.909Z,5.73
2023-04-10T13:30:13.449Z,5.70
2023-04-10T13:32:41.956Z,5.83
2023-04-10T13:35:10.675Z,6.70
2023-04-10T13:37:39.087Z,5.40
2023-04-10T13:40:08.104Z,6.00
2023-04-10T13:42:40.549Z,5.83
2023-04-10T13:45:10.912Z,6.60
2023-04-10T13:47:39.295Z,6.03
2023-04-10T13:50:08.315Z,5.27
2023-04-10T13:52:36.744Z,6.87
2023-04-10T13:55:05.498Z,4.85
2023-04-10T13:57:34.226Z,5.10
2023-04-10T14:00:04.719Z,5.97
2023-04-10T14:02:41.143Z,5.47
2023-04-10T14:05:10.133Z,5.97
2023-04-10T14:07:38.662Z,5.30
2023-04-10T14:10:08.718Z,4.75
2023-04-10T14:12:37.872Z,5.87
2023-04-10T14:15:08.782Z,5.27
2023-04-10T14:17:37.204Z,6.37
2023-04-10T14:20:06.024Z,4.77
2023-04-10T14:22:34.430Z,5.33
2023-04-10T14:25:12.456Z,8.23
2023-04-10T14:27:42.142Z,4.97
2023-04-10T14:30:12.422Z,6.03
2023-04-10T14:32:41.922Z,5.80
2023-04-10T14:35:10.931Z,4.90
2023-04-10T14:37:39.505Z,4.37
2023-04-10T14:40:08.635Z,6.53
2023-04-10T14:42:37.093Z,4.30
2023-04-10T14:45:06.274Z,5.60
2023-04-10T14:47:36.576Z,5.30
2023-04-10T14:50:05.106Z,5.37
2023-04-10T14:52:33.515Z,5.20
2023-04-10T14:55:02.163Z,5.33
2023-04-10T14:57:30.979Z,5.33
2023-04-10T15:00:01.299Z,4.50
2023-04-10T15:02:31.231Z,4.20
2023-04-10T15:05:01.099Z,4.40
2023-04-10T15:07:29.442Z,4.80
2023-04-10T15:09:58.603Z,3.80
2023-04-10T15:12:27.066Z,4.67
2023-04-10T15:14:55.699Z,4.30
2023-04-10T15:17:24.644Z,3.80
2023-04-10T15:19:53.094Z,7.20
2023-04-10T15:22:22.925Z,4.33
2023-04-10T15:24:51.342Z,4.13
2023-04-10T15:27:21.405Z,4.17
2023-04-10T15:29:49.915Z,4.20
2023-04-10T15:32:18.438Z,3.93
2023-04-10T15:34:46.844Z,3.40
2023-04-10T15:37:15.232Z,4.93
2023-04-10T15:39:45.002Z,3.83
2023-04-10T15:42:13.378Z,4.00
2023-04-10T15:44:41.838Z,3.97
2023-04-10T15:47:10.248Z,3.53
2023-04-10T15:49:38.975Z,3.70
2023-04-10T15:52:07.833Z,3.93
2023-04-10T15:54:36.453Z,4.53
2023-04-10T15:57:06.262Z,3.40
2023-04-10T15:59:36.077Z,5.03
2023-04-10T16:02:04.690Z,5.77
2023-04-10T16:04:33.448Z,4.47
2023-04-10T16:07:01.991Z,4.10
2023-04-10T16:09:30.393Z,4.47
2023-04-10T16:11:59.008Z,4.87
2023-04-10T16:14:28.837Z,4.47
2023-04-10T16:16:57.236Z,3.57
2023-04-10T16:19:26.413Z,4.17
2023-04-10T16:21:54.792Z,3.67
2023-04-10T16:24:23.198Z,4.50
2023-04-10T16:26:52.578Z,3.90
2023-04-10T16:29:21.006Z,5.37
2023-04-10T16:31:51.094Z,4.80
2023-04-10T16:34:19.711Z,4.93
2023-04-10T16:36:48.172Z,4.73
2023-04-10T16:39:16.876Z,4.83
2023-04-10T16:41:45.502Z,3.90
2023-04-10T16:44:13.920Z,3.97
2023-04-10T16:46:42.411Z,4.63
2023-04-10T16:49:12.186Z,4.17
2023-04-10T16:51:40.690Z,4.03
2023-04-10T16:54:09.049Z,3.97
2023-04-10T16:56:37.447Z,4.97
2023-04-10T16:59:05.853Z,4.27
2023-04-10T17:01:39.599Z,4.20
2023-04-10T17:04:09.107Z,4.47
2023-04-10T17:06:38.879Z,4.47
2023-04-10T17:09:07.267Z,4.07
2023-04-10T17:11:35.656Z,4.57
2023-04-10T17:14:04.231Z,4.53
2023-04-10T17:16:32.668Z,4.37
2023-04-10T17:19:01.183Z,5.10
2023-04-10T17:21:29.578Z,5.07
2023-04-10T17:23:59.394Z,5.00
2023-04-10T17:26:27.803Z,7.07
2023-04-10T17:28:56.513Z,5.83
2023-04-10T17:31:25.139Z,6.00
2023-04-10T17:33:53.521Z,4.57
2023-04-10T17:36:22.090Z,6.40
2023-04-10T17:38:54.142Z,6.23
2023-04-10T17:41:24.144Z,5.10
2023-04-10T17:43:52.580Z,4.77
2023-04-10T17:46:21.013Z,7.07
2023-04-10T17:48:49.470Z,5.70
2023-04-10T17:51:17.891Z,5.90
2023-04-10T17:53:46.820Z,5.07
2023-04-10T17:56:21.260Z,5.97
2023-04-10T17:58:51.024Z,5.50
2023-04-10T18:01:23.509Z,4.87
2023-04-10T18:03:52.080Z,4.30
2023-04-10T18:06:20.723Z,5.77
2023-04-10T18:08:49.190Z,7.03
2023-04-10T18:11:17.664Z,4.67
2023-04-10T18:13:46.464Z,7.07
2023-04-10T18:16:17.428Z,5.63
2023-04-10T18:18:45.856Z,6.47
2023-04-10T18:21:14.634Z,5.70
2023-04-10T18:23:44.579Z,6.90
2023-04-10T18:26:13.555Z,5.73
2023-04-10T18:28:43.302Z,6.10
2023-04-10T18:31:14.794Z,5.00
2023-04-10T18:33:45.623Z,6.50
2023-04-10T18:36:18.849Z,7.03
2023-04-10T18:38:47.872Z,5.13
2023-04-10T18:41:16.242Z,7.23
2023-04-10T18:43:48.791Z,5.80
2023-04-10T18:46:28.152Z,7.40
2023-04-10T18:48:57.928Z,5.20
2023-04-10T18:51:26.453Z,7.57
2023-04-10T18:53:55.061Z,4.80
2023-04-10T18:56:23.913Z,5.73
2023-04-10T18:58:52.298Z,5.60
2023-04-10T19:01:21.079Z,6.43
2023-04-10T19:03:52.336Z,5.77
2023-04-10T19:06:23.976Z,4.77
2023-04-10T19:08:52.514Z,6.27
2023-04-10T19:11:21.160Z,6.47
2023-04-10T19:13:49.873Z,6.73
2023-04-10T19:16:19.645Z,8.70
2023-04-10T19:18:48.594Z,5.93
2023-04-10T19:21:17.251Z,5.60
2023-04-10T19:23:47.592Z,7.37
2023-04-10T19:26:16.022Z,5.40
2023-04-10T19:28:44.534Z,6.20
2023-04-10T19:31:13.303Z,7.43
2023-04-10T19:33:42.063Z,6.40
2023-04-10T19:36:11.078Z,6.70
2023-04-10T19:38:40.995Z,5.70
2023-04-10T19:41:16.389Z,5.67
2023-04-10T19:43:44.845Z,7.00
2023-04-10T19:46:19.520Z,6.93
2023-04-10T19:48:48.018Z,6.47
2023-04-10T19:51:16.564Z,6.83
2023-04-10T19:53:45.199Z,7.20
2023-04-10T19:56:13.624Z,7.37
2023-04-10T19:58:45.567Z,5.53
2023-04-10T20:01:15.218Z,5.07
2023-04-10T20:03:43.863Z,5.77
2023-04-10T20:06:12.503Z,6.20
2023-04-10T20:08:41.035Z,5.87
2023-04-10T20:11:09.567Z,4.83
2023-04-10T20:13:39.279Z,5.27
2023-04-10T20:16:09.671Z,6.50
2023-04-10T20:18:38.303Z,10.03
2023-04-10T20:21:07.881Z,5.70
2023-04-10T20:23:36.389Z,5.77
2023-04-10T20:26:05.062Z,5.67
2023-04-10T20:28:33.835Z,8.40
2023-04-10T20:31:02.257Z,7.30
2023-04-10T20:33:32.079Z,9.43
2023-04-10T20:36:00.601Z,5.63
2023-04-10T20:38:29.056Z,7.97
2023-04-10T20:40:57.406Z,6.50
2023-04-10T20:43:25.823Z,6.17
2023-04-10T20:45:54.504Z,7.50
2023-04-10T20:48:22.934Z,8.23
2023-04-10T20:50:52.724Z,7.40
2023-04-10T20:53:21.391Z,8.43
2023-04-10T20:55:54.260Z,8.03
2023-04-10T20:58:24.013Z,6.53
2023-04-10T21:00:53.930Z,8.20
2023-04-10T21:03:22.587Z,6.97
2023-04-10T21:05:53.865Z,9.00
2023-04-10T21:08:22.959Z,8.67
2023-04-10T21:10:51.393Z,7.63
2023-04-10T21:13:20.079Z,8.07
2023-04-10T21:15:50.349Z,9.13
2023-04-10T21:18:18.760Z,8.17
2023-04-10T21:20:47.166Z,9.00
2023-04-10T21:23:16.931Z,6.90
2023-04-10T21:25:53.622Z,6.63
2023-04-10T21:28:22.009Z,6.40
2023-04-10T21:30:50.355Z,9.07
2023-04-10T21:33:18.741Z,7.53
2023-04-10T21:35:47.254Z,9.70
2023-04-10T21:38:17.053Z,8.20
2023-04-10T21:40:51.604Z,7.77
2023-04-10T21:43:20.070Z,7.13
2023-04-10T21:45:48.525Z,9.17
2023-04-10T21:48:17.160Z,8.00
2023-04-10T21:50:45.615Z,9.60
2023-04-10T21:53:14.066Z,8.43
2023-04-10T21:55:43.979Z,10.20
2023-04-10T21:58:12.423Z,8.47
2023-04-10T22:00:41.514Z,12.73
2023-04-10T22:03:10.469Z,9.00
2023-04-10T22:05:38.989Z,10.80
2023-04-10T22:08:07.453Z,9.30
2023-04-10T22:10:36.479Z,11.33
2023-04-10T22:13:06.773Z,10.30
2023-04-10T22:15:37.127Z,10.30
2023-04-10T22:18:05.568Z,10.63
2023-04-10T22:20:34.128Z,10.87
2023-04-10T22:23:04.476Z,10.33
2023-04-10T22:25:32.966Z,12.17
2023-04-10T22:28:02.535Z,9.47
2023-04-10T22:30:32.231Z,9.73
2023-04-10T22:33:00.627Z,10.57
2023-04-10T22:35:29.109Z,7.83
2023-04-10T22:37:57.888Z,9.50
2023-04-10T22:40:26.634Z,8.77
2023-04-10T22:42:55.034Z,8.27
2023-04-10T22:45:23.462Z,7.80
2023-04-10T22:47:53.176Z,6.53
2023-04-10T22:50:21.731Z,7.43
2023-04-10T22:52:50.111Z,6.40
2023-04-10T22:55:18.599Z,8.30
2023-04-10T22:57:49.319Z,6.67
2023-04-10T23:00:17.855Z,7.10
2023-04-10T23:02:46.318Z,6.47
2023-04-10T23:05:16.160Z,8.40
2023-04-10T23:07:44.735Z,7.20
2023-04-10T23:10:13.241Z,6.47
2023-04-10T23:12:41.629Z,5.87
2023-04-10T23:15:10.213Z,6.73
2023-04-10T23:17:38.694Z,8.23
2023-04-10T23:20:07.701Z,5.33
2023-04-10T23:22:37.390Z,6.87
2023-04-10T23:25:05.874Z,7.17
2023-04-10T23:27:34.282Z,6.30
2023-04-10T23:30:04.130Z,9.00
2023-04-10T23:32:33.469Z,7.07
2023-04-10T23:35:01.997Z,7.43
2023-04-10T23:37:30.739Z,7.77
2023-04-10T23:40:00.521Z,6.27
2023-04-10T23:42:28.960Z,7.40
2023-04-10T23:44:57.771Z,7.13
2023-04-10T23:47:26.209Z,9.17
2023-04-10T23:49:55.922Z,7.30
2023-04-10T23:52:24.285Z,5.70
2023-04-10T23:54:52.962Z,5.97
2023-04-10T23:57:22.697Z,6.37
2023-04-10T23:59:51.755Z,6.83
